Time;durP1;ratioP1;P1;durP2;ratioP2;P2;SDS_P1;SDS_P2;PMS_P1;PMS_P2;Temp;Humidity;BMP_temperature;BMP_pressure;BME280_temperature;BME280_humidity;BME280_pressure;Samples;Min_cycle;Max_cycle;Signal;HPM_P1;HPM_P2
2021/05/17 00:00:56;;;;;;;0.63;0.60;;;11.80;99.90;;;;;;5094148;28;20039;-73
2021/05/17 00:03:24;;;;;;;0.88;0.70;;;11.70;99.90;;;;;;5093118;28;20072;-73
2021/05/17 00:05:49;;;;;;;1.40;0.93;;;11.70;99.90;;;;;;5094385;28;20016;-74
2021/05/17 00:08:15;;;;;;;1.05;0.77;;;11.60;99.90;;;;;;5093758;28;20030;-74
2021/05/17 00:10:41;;;;;;;0.98;0.98;;;11.70;99.90;;;;;;5093086;28;20367;-73
2021/05/17 00:13:07;;;;;;;0.77;0.77;;;11.60;99.90;;;;;;5079318;28;20078;-74
2021/05/17 00:15:33;;;;;;;1.38;0.90;;;11.60;99.90;;;;;;5093271;28;20024;-74
2021/05/17 00:17:59;;;;;;;1.95;0.95;;;11.60;99.90;;;;;;5093945;28;20529;-74
2021/05/17 00:20:26;;;;;;;0.57;0.57;;;11.50;99.90;;;;;;5092702;28;20032;-74
2021/05/17 00:22:52;;;;;;;0.70;0.65;;;11.50;99.90;;;;;;5093052;28;20035;-74
2021/05/17 00:25:25;;;;;;;1.40;0.70;;;11.40;99.90;;;;;;5093470;28;20090;-74
2021/05/17 00:27:55;;;;;;;0.80;0.60;;;11.30;99.90;;;;;;5093970;28;20028;-74
2021/05/17 00:30:23;;;;;;;1.35;0.80;;;11.40;99.90;;;;;;5086791;28;20086;-73
2021/05/17 00:32:49;;;;;;;1.05;0.90;;;11.30;99.90;;;;;;5086258;28;20024;-73
2021/05/17 00:35:17;;;;;;;1.17;1.08;;;11.30;99.90;;;;;;5093174;28;20468;-73
2021/05/17 00:37:43;;;;;;;0.90;0.90;;;11.30;99.90;;;;;;5092647;28;20400;-73
2021/05/17 00:40:10;;;;;;;0.90;0.90;;;11.20;99.90;;;;;;5093377;28;20050;-74
2021/05/17 00:42:36;;;;;;;0.90;0.90;;;11.20;99.90;;;;;;5083651;28;20452;-73
2021/05/17 00:45:11;;;;;;;1.85;0.98;;;11.20;99.90;;;;;;5087825;28;20032;-74
2021/05/17 00:47:43;;;;;;;2.38;1.33;;;11.20;99.90;;;;;;5092836;28;20085;-72
2021/05/17 00:50:11;;;;;;;2.50;1.08;;;11.20;99.90;;;;;;5093074;28;20032;-73
2021/05/17 00:52:37;;;;;;;1.23;1.13;;;11.20;99.90;;;;;;5092171;28;20020;-73
2021/05/17 00:55:04;;;;;;;1.10;1.00;;;11.20;99.90;;;;;;5093231;28;20023;-74
2021/05/17 00:57:30;;;;;;;2.35;1.50;;;11.10;99.90;;;;;;5090609;28;20028;-73
2021/05/17 00:59:56;;;;;;;1.95;1.33;;;11.10;99.90;;;;;;5080511;28;20418;-73
2021/05/17 01:02:22;;;;;;;2.28;1.50;;;11.10;99.90;;;;;;5092689;28;20123;-73
2021/05/17 01:04:47;;;;;;;5.05;1.63;;;11.10;99.90;;;;;;5091966;28;20012;-73
2021/05/17 01:07:18;;;;;;;2.25;1.65;;;11.10;99.90;;;;;;5092964;28;20034;-73
2021/05/17 01:09:44;;;;;;;1.80;1.70;;;11.10;99.90;;;;;;5092852;28;20016;-75
2021/05/17 01:12:15;;;;;;;2.03;1.55;;;11.10;99.90;;;;;;5092445;28;20090;-73
2021/05/17 01:14:41;;;;;;;;;;;11.10;99.90;;;;;;5093098;28;20031;-73
2021/05/17 01:17:08;;;;;;;1.98;1.88;;;11.10;99.90;;;;;;5092737;28;19977;-73
2021/05/17 01:19:42;;;;;;;3.13;2.55;;;11.10;99.90;;;;;;5091549;28;20031;-73
2021/05/17 01:22:10;;;;;;;2.78;2.25;;;11.10;99.90;;;;;;5093018;28;20039;-73
2021/05/17 01:24:38;;;;;;;3.35;2.20;;;11.10;99.90;;;;;;5092100;28;20460;-73
2021/05/17 01:27:04;;;;;;;3.05;2.75;;;11.10;99.90;;;;;;5091907;28;20064;-73
2021/05/17 01:29:30;;;;;;;3.40;3.10;;;11.10;99.90;;;;;;5078827;28;20106;-73
2021/05/17 01:31:59;;;;;;;5.70;3.22;;;11.10;99.90;;;;;;5091689;28;20018;-73
2021/05/17 01:34:24;;;;;;;6.15;3.90;;;11.10;99.90;;;;;;5091350;28;20042;-73
2021/05/17 01:36:53;;;;;;;4.57;3.92;;;11.10;99.90;;;;;;5092327;28;20020;-73
2021/05/17 01:39:23;;;;;;;4.32;3.95;;;11.10;99.90;;;;;;5092233;28;20028;-73
2021/05/17 01:41:51;;;;;;;5.20;4.03;;;11.10;99.90;;;;;;5091605;28;20028;-74
2021/05/17 01:44:23;;;;;;;4.45;4.05;;;11.10;99.90;;;;;;5091966;28;20055;-74
2021/05/17 01:46:50;;;;;;;4.75;4.35;;;11.10;99.90;;;;;;5091806;28;20030;-73
2021/05/17 01:49:17;;;;;;;7.88;4.47;;;11.00;99.90;;;;;;5091958;28;20081;-73
2021/05/17 01:51:45;;;;;;;6.25;4.40;;;11.00;99.90;;;;;;5092530;28;20116;-73
2021/05/17 01:54:12;;;;;;;4.88;4.47;;;11.00;99.90;;;;;;5091495;28;20024;-73
2021/05/17 01:56:39;;;;;;;6.50;4.90;;;10.90;99.90;;;;;;5083443;28;20024;-74
2021/05/17 01:59:05;;;;;;;9.77;5.30;;;10.90;99.90;;;;;;5086750;28;20024;-73
2021/05/17 02:01:31;;;;;;;6.38;5.78;;;10.80;99.90;;;;;;5090906;28;20107;-73
2021/05/17 02:03:57;;;;;;;5.43;4.93;;;10.80;99.90;;;;;;5091378;28;20432;-74
2021/05/17 02:06:23;;;;;;;7.57;5.88;;;10.70;99.90;;;;;;5091256;28;20020;-74
2021/05/17 02:08:50;;;;;;;6.18;5.57;;;10.70;99.90;;;;;;5090475;28;20149;-73
2021/05/17 02:11:19;;;;;;;6.85;6.25;;;10.70;99.90;;;;;;5090975;28;20012;-74
2021/05/17 02:13:45;;;;;;;6.43;5.55;;;10.60;99.90;;;;;;5091371;28;20035;-74
2021/05/17 02:16:13;;;;;;;9.15;6.72;;;10.70;99.90;;;;;;5090241;28;20048;-74
2021/05/17 02:18:48;;;;;;;7.72;5.65;;;10.60;99.90;;;;;;5091675;28;20032;-73
2021/05/17 02:21:16;;;;;;;7.15;5.95;;;10.70;99.90;;;;;;5090995;28;20097;-73
2021/05/17 02:23:43;;;;;;;10.85;6.55;;;10.70;99.90;;;;;;5090215;28;20024;-73
2021/05/17 02:26:09;;;;;;;7.03;6.38;;;10.70;99.90;;;;;;5091053;28;20052;-73
2021/05/17 02:28:39;;;;;;;7.45;6.50;;;10.70;99.90;;;;;;5090943;28;20052;-73
2021/05/17 02:31:06;;;;;;;7.10;6.20;;;10.80;99.90;;;;;;5091621;28;20103;-73
2021/05/17 02:33:33;;;;;;;7.63;6.85;;;10.80;99.90;;;;;;5077086;28;20330;-73
2021/05/17 02:35:59;;;;;;;8.70;7.05;;;10.90;99.90;;;;;;5071922;28;20025;-72
2021/05/17 02:38:25;;;;;;;7.43;6.82;;;10.90;99.90;;;;;;5070507;28;20430;-73
2021/05/17 02:40:51;;;;;;;7.32;6.72;;;10.90;99.90;;;;;;5070735;28;20086;-73
2021/05/17 02:43:21;;;;;;;7.45;6.50;;;10.90;99.90;;;;;;5072180;28;20056;-73
2021/05/17 02:45:47;;;;;;;7.53;6.80;;;10.90;99.90;;;;;;5074729;28;20433;-73
2021/05/17 02:48:16;;;;;;;9.07;6.75;;;10.90;99.90;;;;;;5074503;28;20059;-73
2021/05/17 02:50:49;;;;;;;8.98;7.07;;;10.90;99.90;;;;;;5074096;28;20020;-73
2021/05/17 02:53:33;;;;;;;7.28;6.68;;;11.00;99.90;;;;;;5075431;28;20535;-75
2021/05/17 02:56:08;;;;;;;8.05;6.05;;;11.00;99.90;;;;;;5074733;28;20036;-72
2021/05/17 02:58:37;;;;;;;8.30;7.03;;;11.00;99.90;;;;;;5073949;28;20102;-72
2021/05/17 03:01:27;;;;;;;6.75;6.25;;;11.00;99.90;;;;;;5075328;28;20059;-72
2021/05/17 03:03:55;;;;;;;8.85;6.95;;;11.00;99.90;;;;;;5075263;28;20095;-73
2021/05/17 03:06:30;;;;;;;7.13;6.47;;;11.00;99.90;;;;;;5074509;28;20020;-74
2021/05/17 03:09:05;;;;;;;6.43;5.90;;;11.10;99.90;;;;;;5075485;28;20063;-74
2021/05/17 03:11:31;;;;;;;6.57;5.93;;;11.00;99.90;;;;;;5074194;28;20029;-74
2021/05/17 03:13:58;;;;;;;8.20;6.18;;;11.10;99.90;;;;;;5075444;28;20024;-74
2021/05/17 03:16:25;;;;;;;7.15;6.40;;;11.10;99.90;;;;;;5075086;28;20733;-74
2021/05/17 03:18:53;;;;;;;7.40;6.70;;;11.10;99.90;;;;;;5074501;28;20025;-73
2021/05/17 03:21:21;;;;;;;7.00;6.32;;;11.00;99.90;;;;;;5074539;28;20464;-74
2021/05/17 03:23:49;;;;;;;7.32;6.47;;;11.10;99.90;;;;;;5075243;28;20036;-73
2021/05/17 03:26:17;;;;;;;6.65;6.00;;;11.10;99.90;;;;;;5074016;28;20409;-74
2021/05/17 03:28:42;;;;;;;9.38;6.53;;;11.10;99.90;;;;;;5075129;28;20025;-74
2021/05/17 03:31:08;;;;;;;6.28;5.57;;;11.00;99.90;;;;;;5075064;28;20025;-74
2021/05/17 03:33:34;;;;;;;6.75;6.15;;;11.00;99.90;;;;;;5073977;28;20411;-74
2021/05/17 03:35:59;;;;;;;6.85;5.25;;;11.00;99.90;;;;;;5074579;28;20044;-72
2021/05/17 03:38:25;;;;;;;5.55;5.00;;;11.00;99.90;;;;;;5074175;28;20024;-73
2021/05/17 03:40:51;;;;;;;10.07;5.55;;;11.10;99.90;;;;;;5073979;28;20020;-73
2021/05/17 03:43:17;;;;;;;5.93;4.68;;;11.10;99.90;;;;;;5074048;28;20043;-73
2021/05/17 03:45:42;;;;;;;4.95;4.55;;;11.00;99.90;;;;;;5074244;28;20035;-73
2021/05/17 03:48:08;;;;;;;5.97;5.20;;;11.10;99.90;;;;;;5073797;28;20119;-73
2021/05/17 03:50:33;;;;;;;5.15;4.57;;;11.10;99.90;;;;;;5074506;28;20043;-72
2021/05/17 03:52:59;;;;;;;6.22;5.53;;;11.10;99.90;;;;;;5074584;28;20070;-74
2021/05/17 03:55:25;;;;;;;6.78;5.22;;;11.10;99.90;;;;;;5072505;28;20025;-75
2021/05/17 03:57:50;;;;;;;8.35;6.03;;;11.20;99.90;;;;;;5074667;28;20031;-74
2021/05/17 04:00:16;;;;;;;7.05;6.18;;;11.20;99.90;;;;;;5074687;28;20376;-74
2021/05/17 04:02:43;;;;;;;6.22;5.63;;;11.20;99.90;;;;;;5073287;28;20108;-74
2021/05/17 04:05:32;;;;;;;6.80;6.20;;;11.20;99.90;;;;;;5074290;28;20025;-74
2021/05/17 04:15:43;;;;;;;9.48;6.22;;;11.20;99.90;;;;;;5073430;28;20469;-75
2021/05/17 04:18:09;;;;;;;6.15;5.65;;;11.20;99.90;;;;;;5073801;28;20078;-75
2021/05/17 04:20:34;;;;;;;6.82;6.25;;;11.20;99.90;;;;;;5073818;28;20024;-74
2021/05/17 04:23:00;;;;;;;6.03;5.43;;;11.20;99.90;;;;;;5073080;28;20041;-74
2021/05/17 04:25:26;;;;;;;7.18;6.47;;;11.30;99.90;;;;;;5073704;28;20545;-73
2021/05/17 04:27:51;;;;;;;6.53;6.03;;;11.30;99.90;;;;;;5073546;28;20523;-75
2021/05/17 04:30:17;;;;;;;10.63;6.57;;;11.30;99.90;;;;;;5072736;28;20051;-75
2021/05/17 04:32:43;;;;;;;6.65;6.10;;;11.30;99.90;;;;;;5073860;28;20065;-75
2021/05/17 04:35:09;;;;;;;7.65;6.30;;;11.30;99.90;;;;;;5072879;28;20032;-74
2021/05/17 04:37:34;;;;;;;10.30;6.65;;;11.40;99.90;;;;;;5073685;28;20016;-73
2021/05/17 04:40:00;;;;;;;6.57;5.40;;;11.70;99.90;;;;;;5074011;28;20395;-73
2021/05/17 04:42:26;;;;;;;5.85;5.25;;;11.40;99.90;;;;;;5073444;28;20108;-73
2021/05/17 04:44:51;;;;;;;8.23;5.60;;;11.40;99.90;;;;;;5072658;28;20039;-73
2021/05/17 04:47:18;;;;;;;7.15;5.75;;;11.50;99.90;;;;;;5073189;28;20024;-73
2021/05/17 04:49:44;;;;;;;11.23;5.65;;;11.50;99.90;;;;;;5073035;28;20024;-72
2021/05/17 04:52:09;;;;;;;9.07;5.07;;;11.50;99.90;;;;;;5074679;28;20066;-73
2021/05/17 04:54:35;;;;;;;5.03;4.53;;;11.50;99.90;;;;;;5086137;28;20019;-72
2021/05/17 04:57:00;;;;;;;5.40;4.85;;;11.50;99.90;;;;;;5072518;28;20082;-73
2021/05/17 04:59:26;;;;;;;6.60;5.05;;;11.50;99.90;;;;;;5072439;28;20107;-73
2021/05/17 05:01:52;;;;;;;5.30;4.85;;;11.50;99.90;;;;;;5072833;28;20059;-73
2021/05/17 05:04:17;;;;;;;7.35;4.45;;;11.50;99.90;;;;;;5071587;28;20063;-75
2021/05/17 05:06:43;;;;;;;7.60;5.30;;;11.50;99.90;;;;;;5072710;28;20110;-74
2021/05/17 05:09:09;;;;;;;6.50;5.82;;;11.50;99.90;;;;;;5073427;28;20467;-74
2021/05/17 05:11:34;;;;;;;6.20;4.78;;;11.60;99.90;;;;;;5072064;28;20017;-73
2021/05/17 05:14:00;;;;;;;9.82;6.10;;;11.60;99.90;;;;;;5072856;28;20111;-75
2021/05/17 05:16:25;;;;;;;8.60;5.40;;;11.60;99.90;;;;;;5072010;28;20046;-73
2021/05/17 05:18:51;;;;;;;7.78;5.97;;;11.70;99.90;;;;;;5070601;28;20020;-74
2021/05/17 05:21:20;;;;;;;7.32;6.10;;;11.70;99.90;;;;;;5077188;28;20032;-73
2021/05/17 05:23:46;;;;;;;9.60;6.80;;;11.70;99.90;;;;;;5076232;28;20419;-73
2021/05/17 05:26:36;;;;;;;7.50;6.28;;;11.70;99.90;;;;;;5074349;28;20048;-74
2021/05/17 05:29:14;;;;;;;6.18;5.65;;;11.70;99.90;;;;;;5055099;28;20055;-72
2021/05/17 05:32:03;;;;;;;9.65;5.78;;;11.70;99.90;;;;;;5058544;28;20024;-72
2021/05/17 05:34:29;;;;;;;9.02;6.13;;;11.70;99.90;;;;;;5057128;28;20029;-72
2021/05/17 05:36:58;;;;;;;9.80;6.20;;;11.70;99.90;;;;;;5057743;28;20381;-74
2021/05/17 05:39:24;;;;;;;13.32;6.57;;;11.70;99.90;;;;;;5051841;28;20028;-74
2021/05/17 05:41:49;;;;;;;11.50;7.18;;;11.70;99.90;;;;;;5060155;28;20329;-73
2021/05/17 05:44:15;;;;;;;7.15;6.40;;;11.70;99.90;;;;;;5054912;28;20029;-73
2021/05/17 05:46:40;;;;;;;13.65;6.93;;;11.70;99.90;;;;;;5053564;28;20021;-73
2021/05/17 05:49:06;;;;;;;7.63;6.82;;;11.70;99.90;;;;;;5061621;28;20481;-73
2021/05/17 05:51:32;;;;;;;7.63;6.85;;;11.70;99.90;;;;;;5073736;28;20016;-73
2021/05/17 05:53:58;;;;;;;9.30;7.75;;;11.70;99.90;;;;;;5075134;28;20427;-73
2021/05/17 05:56:25;;;;;;;10.20;7.20;;;11.70;99.90;;;;;;5069693;28;20107;-74
2021/05/17 05:58:51;;;;;;;8.82;7.72;;;11.70;99.90;;;;;;5069078;28;20025;-74
2021/05/17 06:01:18;;;;;;;10.23;7.50;;;11.70;99.90;;;;;;5068418;28;20478;-73
2021/05/17 06:03:44;;;;;;;8.98;7.38;;;11.60;99.90;;;;;;5071719;28;20033;-72
2021/05/17 06:06:10;;;;;;;15.70;7.93;;;11.60;99.90;;;;;;5074486;28;20044;-73
2021/05/17 06:08:40;;;;;;;8.15;7.45;;;11.70;99.90;;;;;;5072980;28;20052;-72
2021/05/17 06:11:07;;;;;;;8.20;7.50;;;11.60;99.90;;;;;;5074130;28;20021;-75
2021/05/17 06:13:34;;;;;;;7.70;7.00;;;11.70;99.90;;;;;;5071264;28;20115;-75
2021/05/17 06:16:03;;;;;;;7.68;6.45;;;11.70;99.90;;;;;;5072787;28;20600;-75
2021/05/17 06:18:29;;;;;;;7.90;7.07;;;11.70;99.90;;;;;;5073434;28;20036;-76
2021/05/17 06:20:54;;;;;;;11.05;6.43;;;11.70;99.90;;;;;;5077795;28;20019;-76
2021/05/17 06:23:23;;;;;;;10.50;6.07;;;11.80;99.90;;;;;;5077074;28;20183;-76
2021/05/17 06:25:50;;;;;;;10.13;6.07;;;11.80;99.90;;;;;;5073106;28;20127;-76
2021/05/17 06:28:20;;;;;;;9.20;5.68;;;11.90;99.90;;;;;;5077643;28;20029;-76
2021/05/17 06:30:52;;;;;;;9.45;5.68;;;11.90;99.90;;;;;;5080327;28;20023;-75
2021/05/17 06:33:21;;;;;;;6.55;5.85;;;12.00;99.90;;;;;;5082509;28;20020;-77
2021/05/17 06:35:51;;;;;;;12.40;6.40;;;12.00;99.90;;;;;;5079928;28;20025;-76
2021/05/17 06:38:17;;;;;;;11.57;5.93;;;12.00;99.90;;;;;;5084326;28;20028;-74
2021/05/17 06:40:43;;;;;;;11.15;7.00;;;12.10;99.90;;;;;;5067344;28;20048;-76
2021/05/17 06:43:09;;;;;;;13.95;6.75;;;12.10;99.90;;;;;;5079988;28;20036;-74
2021/05/17 06:45:35;;;;;;;12.52;7.05;;;12.10;99.90;;;;;;5067558;28;20361;-73
2021/05/17 06:48:02;;;;;;;9.52;6.93;;;12.10;99.90;;;;;;5087567;28;20039;-75
2021/05/17 06:50:28;;;;;;;8.80;6.88;;;12.10;99.90;;;;;;5086511;28;20023;-75
2021/05/17 06:52:54;;;;;;;8.85;6.80;;;12.20;99.90;;;;;;5089158;28;20165;-75
2021/05/17 06:55:22;;;;;;;10.55;6.15;;;12.20;99.90;;;;;;5085218;28;20036;-74
2021/05/17 06:58:02;;;;;;;10.30;6.90;;;12.20;99.90;;;;;;5089527;28;20073;-72
2021/05/17 07:00:31;;;;;;;7.20;5.78;;;12.20;99.90;;;;;;5085290;28;20032;-75
2021/05/17 07:03:01;;;;;;;7.20;6.47;;;12.30;99.90;;;;;;5089586;28;20042;-75
2021/05/17 07:05:30;;;;;;;7.78;7.00;;;12.40;99.90;;;;;;5077436;28;20025;-73
2021/05/17 07:13:11;;;;;;;7.07;5.80;;;12.60;99.90;;;;;;5084062;28;20035;-75
2021/05/17 07:15:36;;;;;;;9.77;5.53;;;12.70;99.90;;;;;;5083456;28;20096;-74
2021/05/17 07:18:02;;;;;;;6.28;5.72;;;12.80;99.90;;;;;;5088671;28;20028;-75
2021/05/17 07:23:36;;;;;;;6.45;5.85;;;12.90;99.90;;;;;;5076575;28;20025;-75
2021/05/17 07:26:02;;;;;;;8.07;5.68;;;13.00;99.90;;;;;;5093000;28;20105;-74
2021/05/17 07:28:29;;;;;;;8.93;5.57;;;13.00;99.90;;;;;;5094049;28;20020;-76
2021/05/17 07:30:55;;;;;;;6.30;5.80;;;13.00;99.90;;;;;;5080249;28;20017;-76
2021/05/17 07:33:22;;;;;;;7.38;6.18;;;13.10;99.90;;;;;;5093810;28;20031;-76
2021/05/17 07:35:48;;;;;;;6.32;5.68;;;13.10;99.90;;;;;;5096362;28;20124;-75
2021/05/17 07:38:13;;;;;;;5.80;5.30;;;13.10;99.90;;;;;;5093894;28;20559;-74
2021/05/17 07:40:39;;;;;;;9.52;6.28;;;13.20;99.90;;;;;;5094458;28;20063;-75
2021/05/17 07:43:05;;;;;;;6.50;5.80;;;13.30;99.90;;;;;;5093778;28;20468;-75
2021/05/17 07:45:31;;;;;;;5.32;4.82;;;13.30;99.90;;;;;;5075919;28;20037;-76
2021/05/17 07:47:57;;;;;;;5.40;4.82;;;13.40;99.90;;;;;;5075132;28;20052;-75
2021/05/17 07:50:23;;;;;;;5.35;4.72;;;13.40;99.90;;;;;;5074559;28;20483;-75
2021/05/17 07:52:48;;;;;;;5.05;4.65;;;13.50;99.90;;;;;;5073801;28;20089;-75
2021/05/17 07:55:20;;;;;;;6.07;5.00;;;13.60;99.90;;;;;;5074531;28;20051;-75
2021/05/17 07:57:46;;;;;;;4.70;4.30;;;13.90;99.90;;;;;;5074904;28;20029;-75
2021/05/17 08:00:13;;;;;;;7.07;4.32;;;13.90;99.90;;;;;;5073622;28;20054;-74
2021/05/17 08:02:39;;;;;;;4.45;4.05;;;14.10;99.90;;;;;;5074056;28;20166;-75
2021/05/17 08:05:05;;;;;;;5.95;4.20;;;14.10;99.90;;;;;;5076410;28;20480;-75
2021/05/17 08:07:32;;;;;;;5.93;4.68;;;14.30;99.90;;;;;;5074401;28;20029;-75
2021/05/17 08:09:59;;;;;;;4.95;4.50;;;14.40;99.90;;;;;;5075714;28;20074;-76
2021/05/17 08:12:24;;;;;;;8.50;5.32;;;14.50;99.90;;;;;;5074202;28;20037;-75
2021/05/17 08:14:50;;;;;;;8.10;4.85;;;14.60;99.90;;;;;;5074624;28;20039;-76
2021/05/17 08:17:15;;;;;;;7.57;5.38;;;14.60;99.90;;;;;;5074261;28;20046;-75
2021/05/17 08:19:41;;;;;;;6.07;5.10;;;14.70;99.90;;;;;;5074561;28;20555;-76
2021/05/17 08:22:07;;;;;;;5.63;5.00;;;14.90;99.90;;;;;;5074354;28;20028;-75
2021/05/17 08:24:33;;;;;;;6.55;5.05;;;15.00;99.90;;;;;;5074484;28;20103;-75
2021/05/17 08:26:59;;;;;;;6.45;4.72;;;15.10;99.90;;;;;;5075586;28;20558;-75
2021/05/17 08:29:32;;;;;;;5.72;4.68;;;15.30;99.90;;;;;;5074415;28;20035;-75
2021/05/17 08:31:59;;;;;;;6.32;4.63;;;15.40;99.90;;;;;;5074779;28;20117;-75
2021/05/17 08:34:24;;;;;;;5.32;4.82;;;15.50;99.90;;;;;;5073649;28;20047;-74
2021/05/17 08:36:50;;;;;;;7.43;5.57;;;15.50;99.90;;;;;;5072583;28;20429;-75
2021/05/17 08:39:16;;;;;;;6.85;5.20;;;15.60;99.90;;;;;;5073168;28;20024;-75
2021/05/17 08:41:41;;;;;;;7.93;4.82;;;15.60;99.90;;;;;;5073366;28;20456;-75
2021/05/17 08:44:07;;;;;;;5.70;4.88;;;15.60;99.90;;;;;;5073165;28;20373;-76
2021/05/17 08:46:33;;;;;;;5.03;4.53;;;15.60;99.90;;;;;;5073610;28;20028;-75
2021/05/17 08:48:59;;;;;;;5.82;4.32;;;15.70;99.90;;;;;;5072661;28;20033;-76
2021/05/17 08:51:28;;;;;;;5.47;4.25;;;15.80;99.90;;;;;;5073026;28;20024;-75
2021/05/17 08:53:58;;;;;;;4.68;4.28;;;15.80;99.90;;;;;;5072952;28;20039;-75
2021/05/17 08:56:24;;;;;;;4.93;4.53;;;15.90;99.90;;;;;;5072890;28;20357;-76
2021/05/17 08:58:58;;;;;;;4.30;3.90;;;15.90;99.90;;;;;;5072865;28;20039;-76
2021/05/17 09:01:26;;;;;;;4.85;3.95;;;16.00;99.90;;;;;;5073569;28;20024;-75
2021/05/17 09:03:53;;;;;;;3.85;3.47;;;16.00;99.90;;;;;;5071943;28;20380;-76
2021/05/17 09:06:22;;;;;;;5.95;3.83;;;16.20;99.90;;;;;;5080575;28;20372;-75
2021/05/17 09:08:48;;;;;;;4.30;3.95;;;16.30;99.90;;;;;;5068377;28;20106;-75
2021/05/17 09:11:32;;;;;;;4.72;3.88;;;16.40;99.90;;;;;;5056264;28;20377;-74
2021/05/17 09:14:12;;;;;;;4.95;4.53;;;16.60;99.90;;;;;;5062892;28;20467;-75
2021/05/17 09:16:56;;;;;;;4.70;4.20;;;16.60;99.90;;;;;;5076087;28;20033;-75
2021/05/17 09:19:24;;;;;;;12.27;4.20;;;16.60;99.90;;;;;;5072801;28;20031;-76
2021/05/17 09:22:18;;;;;;;4.55;3.70;;;16.60;99.90;;;;;;5074699;28;20135;-74
2021/05/17 09:24:57;;;;;;;4.70;4.22;;;16.70;99.90;;;;;;5067270;28;20469;-74
2021/05/17 09:27:28;;;;;;;5.38;3.70;;;16.80;99.90;;;;;;5059194;28;20142;-77
2021/05/17 09:30:00;;;;;;;5.15;3.78;;;16.90;99.90;;;;;;5050679;28;20372;-76
2021/05/17 09:32:29;;;;;;;4.30;3.90;;;17.10;99.90;;;;;;5083682;28;20028;-75
2021/05/17 09:35:20;;;;;;;6.60;3.65;;;17.30;99.90;;;;;;5092669;28;20376;-75
2021/05/17 09:37:52;;;;;;;3.15;2.42;;;17.30;99.90;;;;;;5092469;28;20349;-75
2021/05/17 09:40:24;;;;;;;2.80;2.05;;;17.30;99.90;;;;;;5092210;28;20169;-75
2021/05/17 09:43:03;;;;;;;3.38;2.03;;;17.10;99.90;;;;;;5092124;28;20357;-76
2021/05/17 09:45:34;;;;;;;2.95;2.40;;;16.80;99.90;;;;;;5073314;28;20108;-74
2021/05/17 09:48:01;;;;;;;2.97;2.58;;;16.70;99.90;;;;;;5073508;28;20028;-75
2021/05/17 09:50:27;;;;;;;2.85;2.63;;;16.50;99.90;;;;;;5071567;28;20473;-75
2021/05/17 09:52:52;;;;;;;4.25;2.70;;;16.30;99.90;;;;;;5071045;28;20031;-74
2021/05/17 09:55:18;;;;;;;5.00;2.97;;;16.20;99.90;;;;;;5071701;28;20025;-74
2021/05/17 09:58:01;;;;;;;5.38;3.88;;;16.00;99.90;;;;;;5072534;28;20016;-74
2021/05/17 10:00:31;;;;;;;6.97;4.28;;;15.90;99.90;;;;;;5071152;28;20085;-75
2021/05/17 10:02:58;;;;;;;5.63;3.80;;;15.70;99.90;;;;;;5072115;28;20036;-75
2021/05/17 10:05:26;;;;;;;3.25;2.95;;;15.50;99.90;;;;;;5071578;28;20063;-74
2021/05/17 10:08:02;;;;;;;7.03;2.90;;;15.20;99.90;;;;;;5071398;28;20031;-73
2021/05/17 10:10:28;;;;;;;2.80;2.47;;;14.90;99.90;;;;;;5071943;28;20538;-73
2021/05/17 10:12:59;;;;;;;3.53;2.70;;;14.70;99.90;;;;;;5072454;28;20025;-72
2021/05/17 10:15:31;;;;;;;3.60;3.20;;;14.60;99.90;;;;;;5070839;28;20059;-73
2021/05/17 10:17:58;;;;;;;2.97;2.65;;;14.20;99.90;;;;;;5071613;28;20025;-72
2021/05/17 10:20:26;;;;;;;3.88;2.20;;;14.10;99.90;;;;;;5070486;28;20434;-75
2021/05/17 10:22:54;;;;;;;2.13;1.80;;;14.10;99.90;;;;;;5071675;28;20037;-74
2021/05/17 10:25:26;;;;;;;4.03;1.42;;;14.10;99.90;;;;;;5063857;28;20499;-73
2021/05/17 10:28:11;;;;;;;1.70;1.60;;;14.00;99.90;;;;;;5083849;28;20030;-73
2021/05/17 10:30:38;;;;;;;4.63;1.48;;;14.00;99.90;;;;;;5077615;28;20027;-73
2021/05/17 10:33:09;;;;;;;1.63;1.52;;;14.20;99.90;;;;;;5085801;28;20488;-74
2021/05/17 10:35:55;;;;;;;1.98;1.88;;;14.30;99.90;;;;;;5079050;28;20067;-73
2021/05/17 10:40:52;;;;;;;2.38;2.17;;;14.80;99.90;;;;;;5056988;28;20036;-74
2021/05/17 10:46:37;;;;;;;4.18;3.25;;;15.20;99.90;;;;;;5054892;28;20029;-73
2021/05/17 10:49:29;;;;;;;3.60;2.50;;;15.30;99.90;;;;;;5056320;28;20424;-73
2021/05/17 10:52:14;;;;;;;3.97;3.33;;;15.30;99.90;;;;;;5056587;28;20067;-74
2021/05/17 10:54:42;;;;;;;3.72;2.88;;;15.10;99.90;;;;;;5062595;28;20418;-74
2021/05/17 10:57:27;;;;;;;4.57;2.67;;;14.80;99.90;;;;;;5073695;28;20020;-74
2021/05/17 11:02:44;;;;;;;2.40;1.70;;;14.30;99.90;;;;;;5055085;28;20479;-73
2021/05/17 11:05:21;;;;;;;1.77;1.67;;;14.30;99.90;;;;;;5059507;28;20027;-72
2021/05/17 11:07:54;;;;;;;3.85;1.80;;;14.20;99.90;;;;;;5062771;28;20025;-73
2021/05/17 11:10:25;;;;;;;1.10;1.10;;;14.20;99.90;;;;;;5056604;28;20362;-74
2021/05/17 11:13:11;;;;;;;1.35;1.25;;;14.10;99.90;;;;;;5058670;28;20369;-72
2021/05/17 11:15:57;;;;;;;1.05;0.98;;;14.00;99.90;;;;;;5056521;28;20158;-73
2021/05/17 11:18:29;;;;;;;1.70;1.30;;;13.90;99.90;;;;;;5060987;28;20148;-73
2021/05/17 11:21:12;;;;;;;1.30;0.95;;;13.80;99.90;;;;;;5059592;28;20044;-74
2021/05/17 11:23:46;;;;;;;1.42;1.10;;;13.90;99.90;;;;;;5083658;28;20472;-74
2021/05/17 11:26:13;;;;;;;3.20;1.10;;;13.80;99.90;;;;;;5081285;28;20044;-74
2021/05/17 11:28:42;;;;;;;2.78;1.30;;;13.80;99.90;;;;;;5076835;28;20246;-73
2021/05/17 11:34:06;;;;;;;8.25;3.17;;;13.90;99.90;;;;;;5073719;28;20037;-74
2021/05/17 11:36:35;;;;;;;6.63;3.35;;;13.90;99.90;;;;;;5092373;28;20024;-74
2021/05/17 11:39:28;;;;;;;4.03;3.58;;;13.90;99.90;;;;;;5068804;28;20417;-74
2021/05/17 11:41:54;;;;;;;4.38;3.30;;;13.90;99.90;;;;;;5066455;28;20423;-74
2021/05/17 11:44:31;;;;;;;5.05;3.92;;;13.90;99.90;;;;;;5070932;28;20032;-74
2021/05/17 11:46:59;;;;;;;2.03;1.92;;;13.80;99.90;;;;;;5073693;28;20021;-74
2021/05/17 11:49:27;;;;;;;2.60;2.05;;;13.80;99.90;;;;;;5075142;28;20032;-74
2021/05/17 11:51:57;;;;;;;4.53;1.48;;;13.80;99.90;;;;;;5082409;28;20096;-74
2021/05/17 11:54:25;;;;;;;2.95;0.90;;;13.80;99.90;;;;;;5087647;28;20151;-74
2021/05/17 11:56:55;;;;;;;0.85;0.85;;;13.70;99.90;;;;;;5075875;28;20024;-75
2021/05/17 11:59:24;;;;;;;0.88;0.88;;;13.80;99.90;;;;;;5080297;28;20035;-73
2021/05/17 12:01:58;;;;;;;3.22;1.30;;;13.90;99.90;;;;;;5077149;28;20036;-75
2021/05/17 12:04:36;;;;;;;1.58;1.13;;;14.10;99.90;;;;;;5073385;28;20044;-75
2021/05/17 12:07:05;;;;;;;2.10;1.52;;;14.30;99.90;;;;;;5069193;28;20056;-74
2021/05/17 12:09:42;;;;;;;2.42;2.17;;;14.50;99.90;;;;;;5072503;28;20476;-74
2021/05/17 12:12:16;;;;;;;5.43;2.60;;;14.60;99.90;;;;;;5076000;28;20032;-74
2021/05/17 12:14:53;;;;;;;2.70;2.50;;;14.50;99.90;;;;;;5073546;28;20016;-74
2021/05/17 12:17:25;;;;;;;3.05;2.65;;;14.40;99.90;;;;;;5074885;28;20468;-74
2021/05/17 12:19:56;;;;;;;3.53;3.22;;;14.40;99.90;;;;;;5075445;28;20074;-75
2021/05/17 12:22:30;;;;;;;3.42;3.05;;;14.30;99.90;;;;;;5075107;28;20346;-74
2021/05/17 12:25:01;;;;;;;4.10;3.80;;;14.40;99.90;;;;;;5073918;28;20041;-74
2021/05/17 12:27:28;;;;;;;6.88;4.65;;;14.50;99.90;;;;;;5072890;28;20044;-73
2021/05/17 12:30:18;;;;;;;6.97;5.80;;;14.70;99.90;;;;;;5073845;28;20043;-76
2021/05/17 12:32:46;;;;;;;7.38;5.25;;;14.80;99.90;;;;;;5073974;28;20024;-74
2021/05/17 12:35:23;;;;;;;4.93;3.20;;;15.10;99.90;;;;;;5073334;28;20032;-74
2021/05/17 12:37:55;;;;;;;5.43;4.30;;;15.30;99.90;;;;;;5073565;28;20085;-76
2021/05/17 12:40:36;;;;;;;7.57;5.63;;;15.50;99.90;;;;;;5064861;28;20048;-76
2021/05/17 12:43:40;;;;;;;8.57;5.57;;;15.70;99.90;;;;;;5058129;28;20044;-75
2021/05/17 12:46:08;;;;;;;5.35;4.78;;;15.70;99.90;;;;;;5010293;28;20042;-73
2021/05/17 12:48:43;;;;;;;6.55;4.35;;;15.80;99.90;;;;;;5011051;28;20077;-75
2021/05/17 12:51:17;;;;;;;7.03;5.35;;;15.80;99.90;;;;;;5051140;28;20024;-75
2021/05/17 12:53:43;;;;;;;6.93;6.15;;;15.80;99.90;;;;;;5081060;28;20029;-76
2021/05/17 12:56:08;;;;;;;11.95;8.30;;;15.80;99.90;;;;;;5081176;28;20116;-80
2021/05/17 12:58:40;;;;;;;9.82;8.80;;;15.90;99.90;;;;;;5077937;28;20074;-75
2021/05/17 13:01:14;;;;;;;8.07;6.03;;;15.80;99.90;;;;;;5082136;28;20085;-75
2021/05/17 13:03:42;;;;;;;6.13;5.60;;;15.90;99.90;;;;;;5073188;28;20040;-76
2021/05/17 13:06:17;;;;;;;7.00;6.40;;;15.90;99.90;;;;;;5072325;28;20103;-76
2021/05/17 13:08:51;;;;;;;7.57;6.57;;;15.80;99.90;;;;;;5070115;28;20044;-76
2021/05/17 13:11:28;;;;;;;5.43;4.55;;;15.90;99.90;;;;;;5071913;28;20031;-76
2021/05/17 13:13:59;;;;;;;8.13;6.35;;;15.90;99.90;;;;;;5073659;28;20027;-77
2021/05/17 13:16:29;;;;;;;7.55;6.82;;;15.90;99.90;;;;;;5072788;28;20019;-75
2021/05/17 13:21:54;;;;;;;10.82;6.70;;;15.80;99.90;;;;;;5069919;28;20028;-76
2021/05/17 13:30:03;;;;;;;8.77;7.80;;;15.20;99.90;;;;;;5076144;28;20063;-76
2021/05/17 13:32:30;;;;;;;9.13;8.27;;;15.10;99.90;;;;;;5073025;28;20444;-75